Time;durP1;ratioP1;P1;durP2;ratioP2;P2;SDS_P1;SDS_P2;PMS_P1;PMS_P2;Temp;Humidity;BMP_temperature;BMP_pressure;BME280_temperature;BME280_humidity;BME280_pressure;Samples;Min_cycle;Max_cycle;Signal;HPM_P1;HPM_P2
2021/06/04 00:05:23;;;;;;;;;;;;;;;;;;;;;
2021/06/04 00:12:03;;;;;;;10.00;7.35;;;;;;;12.07;59.49;99484.84;262612;1093;26275;-73
2021/06/04 00:18:36;;;;;;;12.67;7.60;;;;;;;11.97;59.73;99483.04;262605;1093;22903;-73
2021/06/04 00:24:46;;;;;;;10.40;6.80;;;;;;;11.83;60.25;99487.42;262720;1093;22740;-73
2021/06/04 00:30:22;;;;;;;10.35;7.25;;;;;;;11.76;60.51;99478.88;262352;1093;27141;-73
2021/06/04 00:36:18;;;;;;;10.75;7.10;;;;;;;11.67;61.11;99478.67;262747;1093;22910;-73
2021/06/04 00:41:55;;;;;;;9.55;6.50;;;;;;;11.58;61.30;99481.15;262710;1093;22843;-73
2021/06/04 00:47:34;;;;;;;7.60;6.40;;;;;;;11.52;61.59;99492.97;262515;1093;22865;-72
2021/06/04 00:53:21;;;;;;;8.08;6.23;;;;;;;11.45;61.50;99495.16;262717;1098;22735;-73
2021/06/04 00:59:34;;;;;;;;;;;;;;;;;;;;;
2021/06/04 01:05:28;;;;;;;7.50;6.70;;;;;;;11.30;61.92;99487.98;262765;1093;25343;-73
2021/06/04 01:11:36;;;;;;;9.25;6.70;;;;;;;11.22;62.10;99483.19;262776;1092;23009;-73
2021/06/04 01:18:07;;;;;;;;;;;;;;;;;;;;;
2021/06/04 01:24:21;;;;;;;7.97;5.70;;;;;;;11.17;62.57;99485.91;262477;1098;22748;-73
2021/06/04 01:30:39;;;;;;;9.77;6.63;;;;;;;11.19;62.78;99476.52;262711;1098;22774;-73
2021/06/04 01:36:05;;;;;;;9.13;6.03;;;;;;;11.21;62.74;99470.88;262925;1093;22740;-73
2021/06/04 01:41:37;;;;;;;7.93;6.43;;;;;;;11.16;62.38;99474.36;262754;1098;22968;-73
2021/06/04 01:48:12;;;;;;;;;;;;;;;;;;;;;
2021/06/04 01:54:56;;;;;;;;;;;;;;;;;;;;;
2021/06/04 02:01:24;;;;;;;;;;;;;;;;;;;;;
2021/06/04 02:13:10;;;;;;;8.67;6.80;;;;;;;10.93;63.26;99478.48;262669;1098;22797;-72
2021/06/04 02:25:07;;;;;;;8.77;6.30;;;;;;;10.84;63.79;99483.59;262613;1098;22746;-73
2021/06/04 02:30:36;;;;;;;11.20;7.45;;;;;;;10.81;63.95;99480.66;262886;1098;22935;-72
2021/06/04 02:36:14;;;;;;;8.93;6.67;;;;;;;10.73;64.01;99477.47;262685;1093;22768;-73
2021/06/04 02:41:48;;;;;;;9.55;6.50;;;;;;;10.64;64.11;99473.73;262789;1098;22820;-73
2021/06/04 02:48:08;;;;;;;8.20;5.93;;;;;;;10.60;64.55;99483.38;262475;1098;23309;-73
2021/06/04 02:54:25;;;;;;;9.65;7.45;;;;;;;10.61;64.87;99483.11;262794;1098;24184;-73
2021/06/04 03:00:37;;;;;;;;;;;;;;;;;;;;;
2021/06/04 03:06:00;;;;;;;9.05;6.75;;;;;;;10.57;65.08;99482.04;262658;1093;22971;-72
2021/06/04 03:11:38;;;;;;;7.50;6.20;;;;;;;10.57;65.06;99478.57;262720;1093;22812;-74
2021/06/04 03:18:15;;;;;;;8.67;7.20;;;;;;;10.70;65.81;99479.88;262467;1093;22806;-72
2021/06/04 03:24:25;;;;;;;;;;;;;;;11.23;65.79;99474.86;262539;1098;24688;-73
2021/06/04 03:30:49;;;;;;;9.80;7.27;;;;;;;11.92;64.95;99477.70;262529;1098;21930;-73
2021/06/04 03:36:23;;;;;;;;;;;;;;;;;;;;;
2021/06/04 03:42:22;;;;;;;11.35;8.00;;;;;;;13.39;63.12;99482.17;262386;1093;22926;-73
2021/06/04 03:47:51;;;;;;;;;;;;;;;;;;;;;
2021/06/04 03:54:17;;;;;;;11.45;7.20;;;;;;;14.65;60.32;99490.48;262739;1098;22744;-72
2021/06/04 03:59:46;;;;;;;9.50;7.50;;;;;;;15.16;58.96;99494.08;261736;1101;22777;-73
2021/06/04 04:05:41;;;;;;;9.80;6.95;;;;;;;15.22;58.15;99505.56;262766;1098;22964;-73
2021/06/04 04:12:06;;;;;;;11.40;7.50;;;;;;;15.16;58.18;99504.08;262643;1098;24280;-74
2021/06/04 04:17:57;;;;;;;9.20;6.75;;;;;;;14.88;57.94;99499.47;261931;1093;22763;-72
2021/06/04 04:24:33;;;;;;;10.67;7.90;;;;;;;14.48;58.60;99506.38;262503;1098;22758;-72
2021/06/04 04:38:26;;;;;;;10.65;7.80;;;;;;;13.75;60.26;99503.22;261444;1093;23117;-73
2021/06/04 04:44:53;;;;;;;;;;;;;;;;;;;;;
2021/06/04 04:51:06;;;;;;;8.47;6.67;;;;;;;13.61;61.93;99506.66;262315;1098;22829;-72
2021/06/04 04:58:00;;;;;;;9.43;6.47;;;;;;;13.74;61.48;99505.13;262734;1098;22761;-71
2021/06/04 05:05:00;;;;;;;12.95;7.20;;;;;;;13.93;61.75;99507.79;262765;1093;23627;-72
2021/06/04 05:11:13;;;;;;;8.80;7.08;;;;;;;14.17;61.94;99507.71;262737;1098;22794;-73
2021/06/04 05:17:21;;;;;;;9.83;7.07;;;;;;;14.40;61.90;99510.56;262737;1098;22819;-73
2021/06/04 05:23:11;;;;;;;9.40;7.47;;;;;;;14.63;61.94;99518.83;262776;1093;22770;-72
2021/06/04 05:29:08;;;;;;;;;;;;;;;;;;;;;
2021/06/04 05:35:09;;;;;;;11.23;6.63;;;;;;;15.21;61.25;99520.97;262992;1093;27036;-74
2021/06/04 05:41:18;;;;;;;9.23;7.60;;;;;;;15.56;60.79;99512.44;263257;1098;22819;-73
2021/06/04 05:47:38;;;;;;;;;;;;;;;;;;;;;
2021/06/04 05:54:22;;;;;;;;;;;;;;;;;;;;;
2021/06/04 06:00:20;;;;;;;8.10;6.60;;;;;;;16.32;59.72;99517.19;263408;1098;23030;-74
2021/06/04 06:06:30;;;;;;;8.25;7.30;;;;;;;16.53;59.69;99522.88;263254;1098;22949;-74
2021/06/04 06:24:22;;;;;;;6.40;5.50;;;;;;;17.43;57.98;99527.25;263012;1098;22829;-73
2021/06/04 06:30:03;;;;;;;7.50;6.30;;;;;;;17.72;57.10;99527.76;263084;1098;22722;-74
2021/06/04 06:35:20;;;;;;;6.80;4.57;;;;;;;17.97;56.18;99528.91;263042;1093;22941;-75
2021/06/04 06:40:47;;;;;;;6.00;5.40;;;;;;;18.25;55.15;99537.50;263023;1093;22777;-73
2021/06/04 06:46:29;;;;;;;5.30;4.50;;;;;;;18.52;54.92;99532.03;263399;1098;22851;-73
2021/06/04 06:51:55;;;;;;;;;;;;;;;;;;;;;
2021/06/04 06:57:52;;;;;;;;;;;;;;;;;;;;;
2021/06/04 07:03:47;;;;;;;5.95;4.80;;;;;;;19.44;53.33;99538.88;263380;1098;22758;-74
2021/06/04 07:09:24;;;;;;;4.57;4.17;;;;;;;19.77;52.38;99538.98;263372;1093;22949;-73
2021/06/04 07:15:27;;;;;;;;;;;;;;;;;;;;;
2021/06/04 07:20:40;;;;;;;5.93;4.00;;;;;;;20.34;49.99;99536.75;263566;1098;22738;-74
2021/06/04 07:26:06;;;;;;;5.63;3.60;;;;;;;20.66;49.03;99537.06;263339;1093;22904;-72
2021/06/04 07:31:33;;;;;;;5.15;4.15;;;;;;;20.96;48.18;99536.93;263101;1093;22783;-73
2021/06/04 07:37:49;;;;;;;6.50;3.60;;;;;;;21.07;48.25;99529.08;262828;1098;24274;-74
2021/06/04 07:42:53;;;;;;;4.33;2.93;;;;;;;21.33;46.32;99532.25;262506;1093;26220;-73
2021/06/04 07:47:58;;;;;;;4.98;3.45;;;;;;;21.52;46.40;99533.64;262916;1098;23017;-74
2021/06/04 07:53:07;;;;;;;4.53;3.63;;;;;;;21.72;46.06;99534.61;263065;1093;25996;-73
2021/06/04 07:58:48;;;;;;;4.75;3.43;;;;;;;21.99;45.13;99535.80;263228;1093;22783;-73
2021/06/04 08:04:12;;;;;;;3.50;3.00;;;;;;;22.24;44.01;99548.53;262855;1098;22782;-72
2021/06/04 08:09:42;;;;;;;4.20;3.20;;;;;;;22.33;42.62;99536.36;263426;1098;22787;-73
2021/06/04 08:15:30;;;;;;;;;;;;;;;;;;;;;
2021/06/04 08:21:07;;;;;;;3.40;3.10;;;;;;;22.88;41.62;99535.80;263454;1098;23371;-72
2021/06/04 08:26:24;;;;;;;3.43;2.88;;;;;;;23.22;40.42;99531.58;262932;1093;22846;-73
2021/06/04 08:31:32;;;;;;;3.60;2.78;;;;;;;23.38;39.18;99542.47;263293;1093;22957;-71
2021/06/04 08:36:48;;;;;;;4.75;2.78;;;;;;;23.49;38.71;99542.72;263265;1093;25893;-72
2021/06/04 08:42:35;;;;;;;2.93;2.40;;;;;;;23.67;37.54;99543.12;263137;1098;22823;-72
2021/06/04 08:48:09;;;;;;;3.10;2.80;;;;;;;23.89;37.62;99533.42;263107;1093;22781;-71
2021/06/04 08:53:58;;;;;;;3.55;2.50;;;;;;;24.08;35.96;99526.39;262782;1098;22794;-72
2021/06/04 08:59:13;;;;;;;4.73;3.98;;;;;;;24.25;35.85;99528.66;263422;1098;22771;-74
2021/06/04 09:04:42;;;;;;;2.53;2.33;;;;;;;24.11;33.35;99528.39;263051;1098;22891;-72
2021/06/04 09:10:40;;;;;;;;;;;;;;;;;;;;;
2021/06/04 09:17:07;;;;;;;3.93;3.10;;;;;;;24.05;34.53;99530.63;263021;1093;26206;-72
2021/06/04 09:22:26;;;;;;;;;;;;;;;;;;;;;
2021/06/04 09:34:33;;;;;;;4.00;3.60;;;;;;;24.43;33.27;99496.13;262795;1098;22920;-71
2021/06/04 09:39:39;;;;;;;4.28;3.88;;;;;;;24.63;33.77;99501.59;262670;1098;22822;-72
2021/06/04 09:45:00;;;;;;;3.38;3.08;;;;;;;24.95;34.41;99495.84;262819;1098;22791;-71
2021/06/04 09:50:39;;;;;;;3.67;3.23;;;;;;;25.11;33.24;99490.20;262967;1098;22814;-71
2021/06/04 09:55:56;;;;;;;5.15;3.40;;;;;;;25.27;32.80;99487.31;262624;1092;27038;-71
2021/06/04 10:01:09;;;;;;;4.43;3.30;;;;;;;25.21;32.82;99492.32;262886;1098;23207;-74
2021/06/04 10:06:50;;;;;;;3.40;3.17;;;;;;;25.34;33.14;99483.88;263059;1098;22754;-72
2021/06/04 10:12:15;;;;;;;5.95;3.95;;;;;;;25.53;33.55;99488.45;263497;1098;22903;-75
2021/06/04 10:23:45;;;;;;;5.35;3.50;;;;;;;25.98;33.47;99489.41;263007;1097;23544;-74
2021/06/04 10:29:17;;;;;;;;;;;;;;;26.11;32.76;99489.96;263135;1098;22800;-75
2021/06/04 10:35:15;;;;;;;5.17;4.37;;;;;;;26.30;32.63;99486.22;263202;1098;23624;-75
2021/06/04 10:40:50;;;;;;;4.03;3.30;;;;;;;26.40;31.94;99484.73;263073;1094;22754;-76
2021/06/04 10:47:00;;;;;;;3.48;3.18;;;;;;;26.30;31.25;99472.48;263191;1093;22827;-75
2021/06/04 10:53:08;;;;;;;4.10;3.70;;;;;;;26.18;31.44;99472.78;263103;1093;22794;-75
2021/06/04 10:59:21;;;;;;;4.20;3.80;;;;;;;25.96;31.05;99467.80;262813;1093;22761;-75
2021/06/04 11:04:56;;;;;;;;;;;;;;;26.00;31.39;99459.61;263174;1098;22767;-75
2021/06/04 11:10:32;;;;;;;3.65;3.28;;;;;;;26.05;31.13;99459.31;263249;1098;21490;-76
2021/06/04 11:16:09;;;;;;;4.03;3.73;;;;;;;26.32;30.68;99455.63;262926;1098;22817;-75
2021/06/04 11:22:08;;;;;;;3.23;2.95;;;;;;;26.42;30.66;99455.73;263191;1093;24327;-76
2021/06/04 11:27:39;;;;;;;3.93;3.58;;;;;;;26.43;29.73;99448.30;262500;1098;23180;-76
2021/06/04 11:33:19;;;;;;;4.63;4.23;;;;;;;26.50;30.15;99453.04;262812;1093;25999;-75
2021/06/04 11:38:41;;;;;;;5.68;3.80;;;;;;;26.67;30.39;99444.16;262956;1098;22774;-74
2021/06/04 11:44:30;;;;;;;3.40;3.10;;;;;;;26.58;30.24;99435.45;262819;1093;22771;-75
2021/06/04 11:50:13;;;;;;;;;;;;;;;;;;;;;
2021/06/04 11:55:36;;;;;;;4.00;3.65;;;;;;;26.38;29.59;99430.19;263492;1093;27083;-75
2021/06/04 12:01:18;;;;;;;4.70;3.53;;;;;;;26.35;29.83;99425.46;264056;1098;22806;-75
2021/06/04 12:07:13;;;;;;;4.63;3.98;;;;;;;26.48;29.86;99425.95;263770;1098;22933;-74
2021/06/04 12:13:44;;;;;;;5.83;4.28;;;;;;;26.72;30.20;99421.87;263964;1098;22754;-75
2021/06/04 12:19:37;;;;;;;4.08;3.75;;;;;;;26.69;29.99;99414.36;264157;1093;25896;-74
2021/06/04 12:31:58;;;;;;;;;;;;;;;;;;;;;
2021/06/04 12:37:33;;;;;;;4.00;3.60;;;;;;;26.64;29.99;99411.97;263216;1093;26346;-73
2021/06/04 12:44:20;;;;;;;4.78;4.13;;;;;;;26.62;30.53;99411.54;263292;1093;22801;-75
2021/06/04 12:57:21;;;;;;;4.50;4.10;;;;;;;26.61;29.44;99391.53;263134;1098;23000;-75
2021/06/04 13:02:54;;;;;;;4.25;3.85;;;;;;;26.51;29.67;99391.45;263165;1093;23166;-75
2021/06/04 13:08:27;;;;;;;;;;;;;;;;;;;;;
2021/06/04 13:14:41;;;;;;;5.90;4.48;;;;;;;26.46;30.26;99392.59;262891;1090;22760;-74
2021/06/04 13:20:27;;;;;;;5.23;4.47;;;;;;;26.62;30.08;99381.31;262635;1093;26034;-74
2021/06/04 13:26:34;;;;;;;4.23;3.85;;;;;;;26.59;29.07;99373.84;262587;1093;22854;-75
2021/06/04 13:32:04;;;;;;;5.25;4.48;;;;;;;26.29;29.46;99356.37;262617;1093;22788;-74
2021/06/04 13:37:37;;;;;;;5.40;4.25;;;;;;;26.19;30.14;99372.75;262645;1092;24024;-74
2021/06/04 13:43:06;;;;;;;5.53;5.03;;;;;;;26.21;29.87;99367.69;262467;1093;25761;-74
2021/06/04 13:48:24;;;;;;;6.90;4.63;;;;;;;26.26;29.82;99375.55;263033;1091;26274;-74
2021/06/04 13:53:52;;;;;;;;;;;;;;;;;;;;;
2021/06/04 13:59:26;;;;;;;5.53;4.13;;;;;;;26.55;29.78;99362.82;262581;1093;23482;-72
2021/06/04 14:04:41;;;;;;;4.90;4.40;;;;;;;26.61;29.65;99368.75;262579;1093;22841;-72
2021/06/04 14:10:31;;;;;;;4.70;4.30;;;;;;;26.77;29.76;99360.25;262321;1093;22804;-74
2021/06/04 14:16:05;;;;;;;5.00;4.50;;;;;;;26.81;29.43;99363.81;262176;1093;22738;-72
2021/06/04 14:21:31;;;;;;;4.83;4.37;;;;;;;26.83;29.49;99350.46;262046;1093;22779;-73
2021/06/04 14:26:54;;;;;;;5.63;4.95;;;;;;;26.95;29.57;99352.11;261962;1093;24448;-73
2021/06/04 14:32:17;;;;;;;;;;;;;;;;;;;;;
2021/06/04 14:38:26;;;;;;;;;;;;;;;;;;;;;
2021/06/04 14:44:20;;;;;;;5.48;4.70;;;;;;;26.85;29.05;99344.58;261836;1093;22830;-71
2021/06/04 14:49:38;;;;;;;5.68;5.20;;;;;;;26.78;29.18;99329.64;261992;1092;25887;-72
2021/06/04 14:55:12;;;;;;;5.28;4.48;;;;;;;26.84;29.50;99327.31;261897;1092;23024;-73
2021/06/04 15:00:48;;;;;;;6.30;4.40;;;;;;;26.92;28.88;99330.90;262068;1092;22787;-73
2021/06/04 15:06:31;;;;;;;4.60;4.20;;;;;;;26.96;29.13;99317.92;261933;1092;22786;-73
2021/06/04 15:11:51;;;;;;;4.95;4.53;;;;;;;26.86;29.17;99315.92;261895;1093;23763;-72
2021/06/04 15:17:25;;;;;;;4.95;4.45;;;;;;;26.79;29.59;99316.67;261937;1092;22761;-72
2021/06/04 15:23:01;;;;;;;4.90;4.25;;;;;;;26.83;29.51;99317.48;261878;1093;22774;-72
2021/06/04 15:28:30;;;;;;;4.88;4.40;;;;;;;26.95;29.45;99299.88;262068;1093;22843;-72
2021/06/04 15:33:38;;;;;;;5.73;4.13;;;;;;;27.20;29.53;99305.47;261904;1092;23932;-73
2021/06/04 15:38:59;;;;;;;4.48;4.08;;;;;;;27.48;28.77;99301.25;261946;1093;22863;-72
2021/06/04 15:44:08;;;;;;;4.85;3.85;;;;;;;27.70;29.19;99288.28;262035;1093;22857;-72
2021/06/04 15:49:25;;;;;;;5.55;4.43;;;;;;;27.92;28.95;99285.56;262131;1092;23532;-73
2021/06/04 15:54:47;;;;;;;4.70;4.28;;;;;;;28.08;28.56;99288.73;262059;1092;22790;-72
2021/06/04 16:00:21;;;;;;;4.43;4.03;;;;;;;28.21;28.12;99283.60;261907;1092;22773;-72
2021/06/04 16:05:53;;;;;;;5.33;4.20;;;;;;;28.12;27.98;99274.95;261993;1093;22847;-73
2021/06/04 16:10:57;;;;;;;6.50;4.53;;;;;;;27.93;27.70;99265.89;261854;1093;22793;-72
2021/06/04 16:16:02;;;;;;;5.28;4.78;;;;;;;27.86;27.91;99262.38;261943;1093;22779;-76
2021/06/04 16:21:13;;;;;;;4.58;4.18;;;;;;;27.80;27.61;99268.27;261983;1092;23452;-72
2021/06/04 16:26:24;;;;;;;5.00;4.23;;;;;;;27.58;27.69;99267.45;261960;1093;22952;-72
2021/06/04 16:31:42;;;;;;;5.40;4.90;;;;;;;27.28;27.94;99267.77;261883;1093;23526;-73
2021/06/04 16:36:57;;;;;;;5.27;4.43;;;;;;;27.12;28.51;99270.88;261887;1092;22850;-74
2021/06/04 16:42:09;;;;;;;4.75;4.35;;;;;;;27.05;28.63;99270.86;261879;1093;25842;-73
2021/06/04 16:47:24;;;;;;;4.77;4.17;;;;;;;26.93;28.51;99269.23;262050;1092;22918;-73
2021/06/04 16:52:52;;;;;;;4.88;4.30;;;;;;;26.70;28.87;99273.06;261884;1093;25938;-73
2021/06/04 16:58:25;;;;;;;4.15;3.80;;;;;;;26.50;28.86;99258.81;261843;1093;23064;-72
2021/06/04 17:03:29;;;;;;;4.78;3.83;;;;;;;26.52;29.76;99256.45;261851;1092;22779;-73
2021/06/04 17:08:36;;;;;;;4.85;4.03;;;;;;;27.22;30.07;99253.61;261886;1093;22763;-72
2021/06/04 17:13:43;;;;;;;4.78;4.23;;;;;;;27.88;28.88;99251.74;261901;1092;22821;-73
2021/06/04 17:18:58;;;;;;;5.33;4.10;;;;;;;27.99;29.68;99250.56;261831;1093;22774;-72
2021/06/04 17:29:55;;;;;;;6.48;4.18;;;;;;;28.88;28.61;99248.01;261826;1093;21535;-72
2021/06/04 17:35:13;;;;;;;5.10;4.58;;;;;;;29.06;29.09;99247.92;261879;1093;22788;-72
2021/06/04 17:40:53;;;;;;;5.25;4.73;;;;;;;28.67;28.45;99243.38;262109;1092;25158;-73
2021/06/04 17:46:19;;;;;;;4.70;4.28;;;;;;;27.99;28.86;99247.04;261935;1093;22793;-73
2021/06/04 17:52:01;;;;;;;5.37;4.70;;;;;;;27.28;29.28;99246.56;261872;1093;22771;-72
2021/06/04 18:04:13;;;;;;;5.88;4.98;;;;;;;26.07;30.59;99247.56;261644;1093;23253;-72
2021/06/04 18:10:19;;;;;;;5.33;4.83;;;;;;;25.52;31.08;99242.77;262059;1093;22934;-72
2021/06/04 18:15:34;;;;;;;5.98;4.90;;;;;;;25.07;31.98;99240.75;261911;1093;26277;-73
2021/06/04 18:20:51;;;;;;;5.55;4.80;;;;;;;24.69;32.71;99242.63;261898;1092;22763;-73
2021/06/04 18:26:10;;;;;;;7.00;4.67;;;;;;;24.27;33.66;99238.13;261934;1092;23394;-72
2021/06/04 18:31:37;;;;;;;5.68;4.58;;;;;;;23.94;34.18;99241.54;261851;1093;22763;-72
2021/06/04 18:36:44;;;;;;;6.70;4.43;;;;;;;23.61;34.74;99242.95;261829;1092;25874;-72
2021/06/04 18:42:26;;;;;;;5.88;5.23;;;;;;;23.30;34.57;99245.53;261853;1092;24301;-72
2021/06/04 18:48:25;;;;;;;7.38;4.80;;;;;;;23.02;34.70;99243.03;261748;1093;22885;-74
2021/06/04 18:54:01;;;;;;;6.70;5.25;;;;;;;22.82;34.66;99244.95;261998;1092;22762;-73
2021/06/04 18:59:20;;;;;;;6.40;5.53;;;;;;;22.63;34.92;99248.48;261855;1092;23033;-72
2021/06/04 19:05:30;;;;;;;7.30;5.13;;;;;;;22.38;35.20;99257.72;261922;1093;25941;-73
2021/06/04 19:11:46;;;;;;;6.10;5.00;;;;;;;22.09;35.58;99256.24;261890;1092;24329;-73
2021/06/04 19:17:56;;;;;;;;;;;;;;;;;;;;;
2021/06/04 19:24:00;;;;;;;8.15;5.85;;;;;;;21.50;36.83;99253.22;261869;1092;22968;-72
2021/06/04 19:29:39;;;;;;;8.90;6.30;;;;;;;21.25;37.74;99251.75;261848;1093;22813;-75
2021/06/04 19:35:36;;;;;;;10.28;6.88;;;;;;;20.95;38.46;99255.63;262046;1091;22877;-73
2021/06/04 19:48:59;;;;;;;9.30;6.00;;;;;;;20.36;40.17;99265.16;261660;1092;22781;-74
2021/06/04 19:54:19;;;;;;;8.60;5.47;;;;;;;20.10;41.38;99262.78;261819;1093;25828;-72
2021/06/04 19:59:58;;;;;;;10.53;6.23;;;;;;;19.86;42.56;99258.92;261761;1093;22918;-73
2021/06/04 20:05:22;;;;;;;10.60;6.30;;;;;;;19.64;42.52;99255.48;262008;1093;25979;-74
2021/06/04 20:11:28;;;;;;;8.07;5.70;;;;;;;19.42;43.78;99255.86;261940;1092;22782;-71
2021/06/04 20:18:01;;;;;;;9.23;6.70;;;;;;;19.19;44.58;99250.03;261845;1093;22798;-72
2021/06/04 20:24:01;;;;;;;8.80;6.05;;;;;;;18.97;45.63;99260.11;261856;1093;23347;-73
2021/06/04 20:29:10;;;;;;;;;;;;;;;18.80;46.19;99256.41;261843;1092;22998;-73
2021/06/04 20:34:37;;;;;;;10.83;6.98;;;;;;;18.68;46.68;99264.48;261988;1092;21457;-74
2021/06/04 20:39:47;;;;;;;10.48;7.78;;;;;;;18.56;47.31;99257.05;261960;1093;22779;-72
2021/06/04 20:45:21;;;;;;;9.60;7.30;;;;;;;18.48;47.56;99260.61;261858;1093;22798;-72
2021/06/04 20:50:36;;;;;;;10.25;8.30;;;;;;;18.38;47.47;99255.58;261898;1093;22923;-72
2021/06/04 20:55:47;;;;;;;10.80;7.75;;;;;;;18.34;47.62;99254.64;261695;1092;22799;-73
2021/06/04 21:01:08;;;;;;;11.65;8.40;;;;;;;18.23;47.95;99249.61;261872;1093;22784;-72
2021/06/04 21:07:04;;;;;;;8.93;6.90;;;;;;;18.18;48.23;99244.36;261746;1093;22843;-72
2021/06/04 21:13:10;;;;;;;11.20;7.50;;;;;;;18.12;48.06;99245.69;261647;1093;22787;-72
2021/06/04 21:20:04;;;;;;;8.75;7.05;;;;;;;18.09;48.14;99243.60;261327;1093;22891;-73
2021/06/04 21:25:39;;;;;;;9.00;7.00;;;;;;;18.10;48.20;99239.78;261794;1093;25979;-73
2021/06/04 21:31:06;;;;;;;10.23;6.93;;;;;;;18.10;48.34;99240.59;261894;1093;22841;-72
2021/06/04 21:36:26;;;;;;;9.20;6.80;;;;;;;18.11;48.54;99244.09;261975;1093;22780;-73
2021/06/04 21:41:47;;;;;;;10.00;6.60;;;;;;;18.09;48.98;99238.18;261833;1093;22917;-74
2021/06/04 21:47:28;;;;;;;7.80;6.00;;;;;;;18.09;48.90;99233.57;261732;1092;22777;-72
2021/06/04 21:52:59;;;;;;;7.30;5.73;;;;;;;18.10;48.90;99234.36;261883;1093;22792;-73
2021/06/04 21:58:21;;;;;;;7.95;6.30;;;;;;;18.09;48.63;99240.89;261758;1093;22784;-76
2021/06/04 22:04:10;;;;;;;8.45;5.75;;;;;;;18.09;48.62;99238.18;261687;1093;24346;-74
2021/06/04 22:09:20;;;;;;;7.63;5.53;;;;;;;18.11;48.52;99233.24;261709;1093;24457;-72
2021/06/04 22:14:42;;;;;;;7.30;6.05;;;;;;;18.12;48.94;99227.49;261827;1093;22837;-73
2021/06/04 22:19:51;;;;;;;10.20;6.40;;;;;;;18.10;49.43;99235.17;261847;1093;22786;-73
2021/06/04 22:24:58;;;;;;;7.80;5.87;;;;;;;18.02;50.28;99229.77;261873;1093;24343;-73
2021/06/04 22:30:20;;;;;;;9.17;6.23;;;;;;;17.98;50.36;99221.52;261937;1093;27498;-72
2021/06/04 22:35:29;;;;;;;7.30;6.15;;;;;;;17.97;50.55;99208.30;261819;1093;22848;-73
2021/06/04 22:40:44;;;;;;;8.15;6.80;;;;;;;17.99;50.82;99208.75;262033;1093;22824;-72
2021/06/04 22:45:53;;;;;;;8.90;6.20;;;;;;;18.01;50.77;99199.17;261852;1093;22840;-73
2021/06/04 22:51:04;;;;;;;7.73;5.53;;;;;;;18.03;50.18;99191.49;261784;1093;22796;-75
2021/06/04 22:56:12;;;;;;;5.37;4.57;;;;;;;18.08;49.59;99185.89;261913;1093;26230;-72
2021/06/04 23:01:38;;;;;;;6.30;4.60;;;;;;;18.19;49.35;99180.08;261891;1092;25995;-71
2021/06/04 23:07:52;;;;;;;;;;;;;;;;;;;;;
2021/06/04 23:13:18;;;;;;;7.63;6.13;;;;;;;18.30;49.96;99190.22;261776;1093;25992;-73
2021/06/04 23:19:10;;;;;;;9.10;5.83;;;;;;;18.27;49.69;99180.04;262058;1093;22863;-73
2021/06/04 23:24:45;;;;;;;7.05;5.60;;;;;;;18.17;50.32;99183.12;262028;1092;22711;-72
2021/06/04 23:30:25;;;;;;;;;;;;;;;;;;;;;
2021/06/04 23:35:52;;;;;;;9.15;6.40;;;;;;;18.04;50.84;99174.11;261973;1093;25848;-72
2021/06/04 23:41:11;;;;;;;7.15;5.80;;;;;;;18.00;51.09;99167.76;261992;1093;23014;-73
2021/06/04 23:46:35;;;;;;;11.00;6.50;;;;;;;17.95;51.10;99170.68;261767;1093;25976;-73
2021/06/04 23:52:30;;;;;;;10.20;6.35;;;;;;;17.93;51.70;99160.14;261861;1093;22766;-73
2021/06/04 23:57:37;;;;;;;11.05;6.80;;;;;;;17.88;52.70;99163.03;261763;1091;26455;-72
